createdAt,value
2022-12-25T00:00:25.115Z,0.00
2022-12-25T00:01:25.268Z,0.00
2022-12-25T00:02:25.837Z,0.00
2022-12-25T00:03:26.042Z,0.00
2022-12-25T00:04:26.282Z,0.00
2022-12-25T00:05:26.428Z,0.00
2022-12-25T00:06:26.776Z,0.00
2022-12-25T00:07:27.075Z,0.00
2022-12-25T00:08:27.268Z,0.00
2022-12-25T00:09:27.559Z,0.00
2022-12-25T00:10:27.868Z,0.00
2022-12-25T00:11:28.173Z,0.00
2022-12-25T00:12:28.517Z,0.00
2022-12-25T00:13:29.797Z,0.00
2022-12-25T00:14:29.062Z,0.00
2022-12-25T00:15:29.318Z,0.00
2022-12-25T00:16:29.693Z,0.00
2022-12-25T00:17:29.891Z,0.00
2022-12-25T00:18:30.199Z,0.00
2022-12-25T00:19:30.454Z,1.00
2022-12-25T00:20:30.800Z,0.00
2022-12-25T00:21:31.069Z,0.00
2022-12-25T00:22:31.412Z,0.00
2022-12-25T00:23:31.593Z,0.00
2022-12-25T00:24:31.900Z,0.00
2022-12-25T00:25:32.231Z,0.00
2022-12-25T00:26:32.566Z,0.00
2022-12-25T00:27:32.769Z,0.00
2022-12-25T00:28:33.125Z,0.00
2022-12-25T00:29:33.801Z,0.00
2022-12-25T00:30:33.711Z,0.00
2022-12-25T00:31:34.109Z,0.00
2022-12-25T00:32:34.271Z,0.00
2022-12-25T00:33:34.572Z,0.00
2022-12-25T00:34:34.858Z,0.00
2022-12-25T00:35:35.086Z,0.00
2022-12-25T00:36:41.336Z,0.00
2022-12-25T00:37:36.719Z,0.00
2022-12-25T00:38:36.005Z,0.00
2022-12-25T00:39:36.235Z,0.00
2022-12-25T00:40:36.566Z,0.00
2022-12-25T00:41:36.744Z,0.00
2022-12-25T00:42:37.108Z,0.00
2022-12-25T00:43:37.355Z,0.00
2022-12-25T00:44:37.678Z,0.00
2022-12-25T00:45:37.946Z,0.00
2022-12-25T00:46:38.272Z,0.00
2022-12-25T00:47:38.509Z,0.00
2022-12-25T00:48:39.242Z,0.00
2022-12-25T00:49:38.930Z,1.00
2022-12-25T00:50:39.278Z,0.00
2022-12-25T00:51:39.649Z,0.00
2022-12-25T00:52:39.805Z,0.00
2022-12-25T00:53:40.122Z,0.00
2022-12-25T00:54:40.428Z,0.00
2022-12-25T00:55:40.714Z,0.00
2022-12-25T00:56:41.079Z,0.00
2022-12-25T00:57:41.357Z,0.00
2022-12-25T00:58:41.685Z,0.00
2022-12-25T00:59:41.935Z,0.00
2022-12-25T01:00:42.429Z,0.00
2022-12-25T01:01:42.715Z,0.00
2022-12-25T01:02:42.991Z,0.00
2022-12-25T01:03:43.130Z,0.00
2022-12-25T01:04:43.297Z,0.00
2022-12-25T01:05:43.675Z,0.00
2022-12-25T01:06:43.823Z,0.00
2022-12-25T01:07:44.172Z,0.00
2022-12-25T01:08:44.501Z,0.00
2022-12-25T01:09:44.650Z,0.00
2022-12-25T01:10:45.831Z,1.00
2022-12-25T01:11:45.265Z,0.00
2022-12-25T01:12:45.570Z,0.00
2022-12-25T01:13:45.852Z,0.00
2022-12-25T01:14:46.168Z,0.00
2022-12-25T01:15:46.484Z,0.00
2022-12-25T01:16:46.851Z,0.00
2022-12-25T01:17:47.064Z,0.00
2022-12-25T01:18:47.363Z,0.00
2022-12-25T01:19:47.668Z,0.00
2022-12-25T01:20:48.943Z,0.00
2022-12-25T01:21:48.239Z,0.00
2022-12-25T01:22:48.538Z,0.00
2022-12-25T01:23:48.821Z,0.00
2022-12-25T01:24:49.167Z,0.00
2022-12-25T01:25:49.420Z,0.00
2022-12-25T01:26:49.814Z,0.00
2022-12-25T01:27:50.114Z,0.00
2022-12-25T01:28:50.351Z,0.00
2022-12-25T01:29:50.669Z,0.00
2022-12-25T01:30:51.102Z,0.00
2022-12-25T01:31:51.338Z,0.00
2022-12-25T01:32:51.601Z,0.00
2022-12-25T01:33:51.856Z,0.00
2022-12-25T01:34:56.034Z,0.00
2022-12-25T01:35:52.396Z,0.00
2022-12-25T01:36:52.788Z,0.00
2022-12-25T01:37:53.136Z,0.00
2022-12-25T01:38:53.339Z,0.00
2022-12-25T01:39:53.519Z,0.00
2022-12-25T01:40:53.898Z,0.00
2022-12-25T01:41:54.202Z,0.00
2022-12-25T01:42:54.525Z,0.00
2022-12-25T01:43:54.801Z,0.00
2022-12-25T01:44:55.161Z,0.00
2022-12-25T01:45:55.494Z,0.00
2022-12-25T01:46:55.686Z,1.00
2022-12-25T01:47:55.993Z,0.00
2022-12-25T01:48:56.311Z,0.00
2022-12-25T01:49:56.632Z,0.00
2022-12-25T01:50:57.368Z,0.00
2022-12-25T01:51:57.237Z,0.00
2022-12-25T01:52:57.615Z,0.00
2022-12-25T01:53:57.828Z,0.00
2022-12-25T01:54:58.154Z,0.00
2022-12-25T01:55:58.483Z,0.00
2022-12-25T01:56:58.803Z,0.00
2022-12-25T01:57:59.048Z,0.00
2022-12-25T01:58:59.384Z,0.00
2022-12-25T01:59:59.695Z,0.00
2022-12-25T02:01:00.056Z,0.00
2022-12-25T02:02:00.513Z,0.00
2022-12-25T02:03:00.700Z,0.00
2022-12-25T02:04:01.020Z,0.00
2022-12-25T02:05:01.313Z,0.00
2022-12-25T02:06:01.521Z,0.00
2022-12-25T02:07:01.838Z,0.00
2022-12-25T02:08:02.101Z,0.00
2022-12-25T02:09:02.298Z,1.00
2022-12-25T02:10:02.677Z,0.00
2022-12-25T02:11:03.068Z,0.00
2022-12-25T02:12:03.250Z,1.00
2022-12-25T02:13:03.612Z,0.00
2022-12-25T02:14:03.943Z,0.00
2022-12-25T02:15:06.073Z,0.00
2022-12-25T02:16:04.527Z,0.00
2022-12-25T02:17:04.846Z,1.00
2022-12-25T02:18:05.485Z,0.00
2022-12-25T02:19:05.350Z,0.00
2022-12-25T02:20:05.709Z,0.00
2022-12-25T02:21:05.921Z,0.00
2022-12-25T02:22:06.202Z,0.00
2022-12-25T02:23:06.488Z,0.00
2022-12-25T02:24:06.694Z,0.00
2022-12-25T02:25:07.069Z,0.00
2022-12-25T02:26:07.288Z,0.00
2022-12-25T02:27:07.625Z,0.00
2022-12-25T02:28:07.915Z,0.00
2022-12-25T02:29:08.262Z,0.00
2022-12-25T02:30:08.580Z,0.00
2022-12-25T02:31:08.823Z,0.00
2022-12-25T02:32:09.281Z,0.00
2022-12-25T02:33:09.466Z,0.00
2022-12-25T02:34:09.814Z,0.00
2022-12-25T02:35:09.987Z,0.00
2022-12-25T02:36:10.320Z,0.00
2022-12-25T02:37:10.531Z,0.00
2022-12-25T02:38:10.855Z,0.00
2022-12-25T02:39:11.117Z,0.00
2022-12-25T02:40:11.278Z,0.00
2022-12-25T02:41:11.607Z,0.00
2022-12-25T02:42:11.924Z,0.00
2022-12-25T02:43:12.178Z,1.00
2022-12-25T02:44:13.338Z,0.00
2022-12-25T02:45:12.825Z,0.00
2022-12-25T02:46:13.205Z,0.00
2022-12-25T02:47:13.492Z,0.00
2022-12-25T02:48:13.686Z,0.00
2022-12-25T02:49:14.012Z,0.00
2022-12-25T02:50:14.343Z,0.00
2022-12-25T02:51:14.531Z,0.00
2022-12-25T02:52:14.908Z,0.00
2022-12-25T02:53:15.170Z,0.00
2022-12-25T02:54:15.448Z,0.00
2022-12-25T02:55:15.701Z,0.00
2022-12-25T02:56:16.891Z,0.00
2022-12-25T02:57:16.229Z,0.00
2022-12-25T02:58:16.535Z,0.00
2022-12-25T02:59:16.827Z,0.00
2022-12-25T03:00:17.563Z,1.00
2022-12-25T03:01:17.521Z,0.00
2022-12-25T03:02:17.809Z,0.00
2022-12-25T03:03:18.085Z,0.00
2022-12-25T03:04:18.277Z,0.00
2022-12-25T03:05:18.603Z,0.00
2022-12-25T03:06:18.893Z,1.00
2022-12-25T03:07:19.276Z,0.00
2022-12-25T03:08:19.583Z,0.00
2022-12-25T03:09:19.906Z,0.00
2022-12-25T03:10:20.214Z,0.00
2022-12-25T03:11:20.540Z,0.00
2022-12-25T03:12:20.830Z,0.00
2022-12-25T03:13:21.164Z,0.00
2022-12-25T03:14:21.474Z,0.00
2022-12-25T03:15:21.842Z,0.00
2022-12-25T03:16:22.115Z,0.00
2022-12-25T03:17:22.399Z,0.00
2022-12-25T03:18:22.692Z,0.00
2022-12-25T03:19:23.073Z,0.00
2022-12-25T03:20:23.373Z,0.00
2022-12-25T03:21:23.637Z,1.00
2022-12-25T03:22:24.026Z,0.00
2022-12-25T03:23:24.259Z,0.00
2022-12-25T03:24:24.520Z,0.00
2022-12-25T03:25:24.861Z,0.00
2022-12-25T03:26:25.042Z,0.00
2022-12-25T03:27:25.429Z,0.00
2022-12-25T03:28:25.627Z,0.00
2022-12-25T03:29:31.677Z,0.00
2022-12-25T03:30:27.291Z,0.00
2022-12-25T03:31:26.639Z,0.00
2022-12-25T03:32:26.724Z,0.00
2022-12-25T03:33:44.657Z,0.00
2022-12-25T03:34:28.333Z,0.00
2022-12-25T03:35:28.564Z,0.00
2022-12-25T03:36:27.894Z,0.00
2022-12-25T03:37:28.197Z,0.00
2022-12-25T03:38:28.453Z,0.00
2022-12-25T03:39:28.775Z,0.00
2022-12-25T03:40:29.077Z,0.00
2022-12-25T03:41:29.284Z,1.00
2022-12-25T03:42:29.609Z,0.00
2022-12-25T03:43:29.949Z,0.00
2022-12-25T03:44:30.411Z,0.00
2022-12-25T03:45:30.607Z,0.00
2022-12-25T03:46:30.953Z,1.00
2022-12-25T03:47:31.170Z,0.00
2022-12-25T03:48:31.461Z,0.00
2022-12-25T03:49:31.803Z,0.00
2022-12-25T03:50:32.086Z,0.00
2022-12-25T03:51:32.434Z,0.00
2022-12-25T03:52:32.725Z,0.00
2022-12-25T03:53:33.028Z,0.00
2022-12-25T03:54:33.394Z,0.00
2022-12-25T03:55:33.586Z,0.00
2022-12-25T03:56:33.807Z,0.00
2022-12-25T03:57:34.162Z,0.00
2022-12-25T03:58:34.480Z,0.00
2022-12-25T03:59:34.946Z,0.00
2022-12-25T04:00:35.172Z,0.00
2022-12-25T04:01:35.455Z,0.00
2022-12-25T04:02:35.858Z,0.00
2022-12-25T04:03:35.987Z,0.00
2022-12-25T04:04:36.191Z,0.00
2022-12-25T04:05:36.494Z,0.00
2022-12-25T04:06:36.810Z,0.00
2022-12-25T04:07:37.087Z,0.00
2022-12-25T04:08:37.399Z,0.00
2022-12-25T04:09:37.750Z,0.00
2022-12-25T04:10:37.926Z,0.00
2022-12-25T04:11:38.113Z,1.00
2022-12-25T04:12:38.499Z,0.00
2022-12-25T04:13:38.760Z,0.00
2022-12-25T04:14:38.949Z,0.00
2022-12-25T04:15:39.291Z,0.00
2022-12-25T04:16:39.468Z,0.00
2022-12-25T04:17:39.852Z,0.00
2022-12-25T04:18:40.178Z,0.00
2022-12-25T04:19:40.479Z,0.00
2022-12-25T04:20:40.864Z,0.00
2022-12-25T04:21:41.076Z,0.00
2022-12-25T04:22:41.385Z,0.00
2022-12-25T04:23:41.732Z,0.00
2022-12-25T04:24:41.925Z,0.00
2022-12-25T04:25:42.190Z,0.00
2022-12-25T04:26:42.502Z,0.00
2022-12-25T04:27:42.828Z,0.00
2022-12-25T04:28:43.130Z,0.00
2022-12-25T04:29:43.423Z,0.00
2022-12-25T04:30:43.783Z,0.00
2022-12-25T04:31:44.183Z,0.00
2022-12-25T04:32:44.336Z,0.00
2022-12-25T04:33:44.904Z,0.00
2022-12-25T04:34:44.984Z,0.00
2022-12-25T04:35:45.323Z,0.00
2022-12-25T04:36:45.498Z,0.00
2022-12-25T04:37:45.812Z,0.00
2022-12-25T04:38:46.121Z,0.00
2022-12-25T04:39:46.462Z,0.00
2022-12-25T04:40:46.753Z,0.00
2022-12-25T04:41:47.104Z,0.00
2022-12-25T04:42:47.280Z,0.00
2022-12-25T04:43:47.601Z,0.00
2022-12-25T04:44:47.919Z,0.00
2022-12-25T04:45:48.293Z,0.00
2022-12-25T04:46:48.591Z,0.00
2022-12-25T04:47:48.776Z,0.00
2022-12-25T04:48:49.080Z,0.00
2022-12-25T04:49:49.406Z,0.00
2022-12-25T04:50:49.669Z,0.00
2022-12-25T04:51:50.108Z,0.00
2022-12-25T04:52:50.265Z,0.00
2022-12-25T04:53:50.628Z,0.00
2022-12-25T04:54:50.906Z,0.00
2022-12-25T04:55:51.300Z,0.00
2022-12-25T04:56:51.550Z,0.00
2022-12-25T04:57:51.867Z,0.00
2022-12-25T04:58:52.054Z,0.00
2022-12-25T04:59:52.359Z,1.00
2022-12-25T05:00:52.613Z,0.00
2022-12-25T05:01:53.003Z,0.00
2022-12-25T05:02:53.331Z,0.00
2022-12-25T05:03:53.551Z,0.00
2022-12-25T05:04:53.821Z,0.00
2022-12-25T05:05:54.045Z,0.00
2022-12-25T05:06:54.348Z,0.00
2022-12-25T05:07:54.671Z,0.00
2022-12-25T05:08:55.044Z,0.00
2022-12-25T05:09:55.360Z,0.00
2022-12-25T05:10:55.567Z,0.00
2022-12-25T05:11:55.883Z,0.00
2022-12-25T05:12:56.191Z,0.00
2022-12-25T05:13:56.516Z,0.00
2022-12-25T05:14:56.814Z,0.00
2022-12-25T05:15:57.207Z,0.00
2022-12-25T05:16:57.383Z,0.00
2022-12-25T05:17:57.687Z,0.00
2022-12-25T05:18:58.054Z,0.00
2022-12-25T05:19:58.381Z,0.00
2022-12-25T05:20:58.606Z,0.00
2022-12-25T05:21:58.945Z,0.00
2022-12-25T05:22:59.250Z,0.00
2022-12-25T05:23:59.562Z,0.00
2022-12-25T05:24:59.855Z,0.00
2022-12-25T05:26:00.197Z,0.00
2022-12-25T05:27:00.509Z,0.00
2022-12-25T05:28:00.818Z,0.00
2022-12-25T05:29:01.144Z,0.00
2022-12-25T05:30:01.483Z,0.00
2022-12-25T05:31:01.637Z,1.00
2022-12-25T05:32:02.006Z,0.00
2022-12-25T05:33:02.311Z,0.00
2022-12-25T05:34:02.656Z,0.00
2022-12-25T05:35:02.819Z,0.00
2022-12-25T05:36:03.175Z,0.00
2022-12-25T05:37:03.495Z,0.00
2022-12-25T05:38:03.766Z,0.00
2022-12-25T05:39:04.072Z,0.00
2022-12-25T05:40:04.425Z,0.00
2022-12-25T05:41:04.697Z,0.00
2022-12-25T05:42:05.059Z,0.00
2022-12-25T05:43:05.334Z,0.00
2022-12-25T05:44:05.675Z,0.00
2022-12-25T05:45:06.349Z,0.00
2022-12-25T05:46:06.307Z,0.00
2022-12-25T05:47:06.993Z,0.00
2022-12-25T05:48:06.838Z,0.00
2022-12-25T05:49:06.986Z,0.00
2022-12-25T05:50:07.350Z,0.00
2022-12-25T05:51:07.618Z,0.00
2022-12-25T05:52:07.975Z,0.00
2022-12-25T05:53:08.751Z,0.00
2022-12-25T05:54:08.615Z,0.00
2022-12-25T05:55:09.039Z,0.00
2022-12-25T05:56:09.211Z,0.00
2022-12-25T05:57:09.504Z,0.00
2022-12-25T05:58:09.815Z,0.00
2022-12-25T05:59:10.150Z,0.00
2022-12-25T06:00:10.433Z,0.00
2022-12-25T06:01:10.733Z,0.00
2022-12-25T06:02:11.134Z,0.00
2022-12-25T06:03:11.434Z,0.00
2022-12-25T06:04:12.873Z,0.00
2022-12-25T06:05:12.002Z,0.00
2022-12-25T06:06:12.245Z,0.00
2022-12-25T06:07:12.528Z,0.00
2022-12-25T06:08:12.897Z,0.00
2022-12-25T06:09:13.073Z,0.00
2022-12-25T06:10:13.420Z,0.00
2022-12-25T06:11:13.597Z,0.00
2022-12-25T06:12:13.928Z,0.00
2022-12-25T06:13:14.200Z,0.00
2022-12-25T06:14:14.565Z,0.00
2022-12-25T06:15:14.856Z,0.00
2022-12-25T06:16:15.248Z,0.00
2022-12-25T06:17:15.398Z,0.00
2022-12-25T06:18:15.764Z,0.00
2022-12-25T06:19:16.064Z,0.00
2022-12-25T06:20:16.247Z,0.00
2022-12-25T06:21:16.488Z,0.00
2022-12-25T06:22:16.790Z,0.00
2022-12-25T06:23:17.066Z,0.00
2022-12-25T06:24:21.279Z,0.00
2022-12-25T06:25:17.679Z,0.00
2022-12-25T06:26:18.009Z,0.00
2022-12-25T06:27:18.333Z,0.00
2022-12-25T06:28:19.615Z,0.00
2022-12-25T06:29:18.898Z,0.00
2022-12-25T06:30:19.231Z,0.00
2022-12-25T06:31:19.705Z,0.00
2022-12-25T06:32:19.756Z,0.00
2022-12-25T06:33:20.047Z,0.00
2022-12-25T06:34:20.376Z,0.00
2022-12-25T06:35:20.588Z,0.00
2022-12-25T06:36:20.905Z,0.00
2022-12-25T06:37:21.131Z,0.00
2022-12-25T06:38:21.417Z,0.00
2022-12-25T06:39:21.694Z,0.00
2022-12-25T06:40:22.012Z,0.00
2022-12-25T06:41:22.694Z,0.00
2022-12-25T06:42:22.570Z,0.00
2022-12-25T06:43:22.847Z,0.00
2022-12-25T06:44:23.118Z,0.00
2022-12-25T06:45:23.553Z,0.00
2022-12-25T06:46:23.812Z,0.00
2022-12-25T06:47:24.100Z,0.00
2022-12-25T06:48:24.355Z,1.00
2022-12-25T06:49:24.494Z,1.00
2022-12-25T06:50:24.908Z,1.00
2022-12-25T06:51:25.151Z,1.00
2022-12-25T06:52:25.381Z,1.00
2022-12-25T06:53:25.657Z,0.00
2022-12-25T06:54:26.003Z,0.00
2022-12-25T06:55:26.255Z,0.00
2022-12-25T06:56:26.486Z,2.00
2022-12-25T06:57:26.786Z,0.00
2022-12-25T06:58:26.922Z,1.00
2022-12-25T06:59:27.208Z,0.00
2022-12-25T07:00:27.542Z,2.00
2022-12-25T07:01:27.853Z,4.00
2022-12-25T07:02:28.143Z,4.00
2022-12-25T07:03:28.323Z,5.00
2022-12-25T07:04:28.533Z,2.00
2022-12-25T07:05:28.820Z,2.00
2022-12-25T07:06:29.036Z,2.00
2022-12-25T07:07:29.253Z,2.00
2022-12-25T07:08:29.679Z,5.00
2022-12-25T07:09:29.856Z,8.00
2022-12-25T07:10:30.144Z,7.00
2022-12-25T07:11:30.834Z,7.00
2022-12-25T07:12:30.691Z,10.00
2022-12-25T07:13:30.881Z,8.00
2022-12-25T07:14:31.247Z,12.00
2022-12-25T07:15:31.497Z,16.00
2022-12-25T07:16:31.826Z,18.00
2022-12-25T07:17:32.007Z,21.00
2022-12-25T07:18:32.292Z,20.00
2022-12-25T07:19:32.511Z,20.00
2022-12-25T07:20:32.874Z,22.00
2022-12-25T07:21:33.138Z,21.00
2022-12-25T07:22:33.422Z,23.00
2022-12-25T07:23:33.605Z,24.00
2022-12-25T07:24:33.890Z,25.00
2022-12-25T07:25:37.419Z,28.00
2022-12-25T07:26:34.424Z,31.00
2022-12-25T07:27:34.657Z,33.00
2022-12-25T07:28:35.049Z,31.00
2022-12-25T07:29:35.293Z,33.00
2022-12-25T07:30:35.547Z,33.00
2022-12-25T07:31:35.849Z,38.00
2022-12-25T07:32:36.075Z,38.00
2022-12-25T07:33:36.337Z,42.00
2022-12-25T07:34:36.657Z,43.00
2022-12-25T07:35:36.889Z,48.00
2022-12-25T07:36:37.176Z,49.00
2022-12-25T07:37:37.410Z,54.00
2022-12-25T07:38:37.662Z,56.00
2022-12-25T07:39:37.976Z,59.00
2022-12-25T07:40:38.150Z,64.00
2022-12-25T07:41:38.427Z,68.00
2022-12-25T07:42:38.694Z,67.00
2022-12-25T07:43:38.960Z,67.00
2022-12-25T07:44:39.195Z,74.00
2022-12-25T07:45:39.436Z,81.00
2022-12-25T07:46:39.698Z,83.00
2022-12-25T07:47:39.996Z,88.00
2022-12-25T07:48:40.213Z,92.00
2022-12-25T07:49:40.420Z,96.00
2022-12-25T07:50:40.717Z,108.00
2022-12-25T07:51:40.920Z,112.00
2022-12-25T07:52:43.691Z,126.00
2022-12-25T07:53:41.560Z,130.00
2022-12-25T07:54:41.885Z,128.00
2022-12-25T07:55:42.049Z,126.00
2022-12-25T07:56:42.335Z,122.00
2022-12-25T07:57:42.564Z,128.00
2022-12-25T07:58:42.870Z,124.00
2022-12-25T07:59:43.119Z,115.00
2022-12-25T08:00:43.409Z,106.00
2022-12-25T08:01:43.866Z,107.00
2022-12-25T08:02:44.226Z,105.00
2022-12-25T08:03:44.316Z,111.00
2022-12-25T08:04:44.541Z,112.00
2022-12-25T08:05:44.806Z,113.00
2022-12-25T08:06:45.131Z,124.00
2022-12-25T08:07:45.357Z,128.00
2022-12-25T08:08:45.618Z,134.00
2022-12-25T08:09:45.894Z,133.00
2022-12-25T08:10:46.194Z,139.00
2022-12-25T08:11:46.411Z,150.00
2022-12-25T08:12:46.683Z,148.00
2022-12-25T08:13:46.935Z,143.00
2022-12-25T08:14:47.182Z,145.00
2022-12-25T08:15:47.459Z,151.00
2022-12-25T08:16:47.814Z,156.00
2022-12-25T08:17:47.959Z,149.00
2022-12-25T08:18:48.193Z,150.00
2022-12-25T08:19:48.445Z,151.00
2022-12-25T08:20:48.805Z,148.00
2022-12-25T08:21:49.368Z,147.00
2022-12-25T08:22:49.352Z,171.00
2022-12-25T08:23:49.581Z,180.00
2022-12-25T08:24:49.827Z,176.00
2022-12-25T08:25:50.110Z,169.00
2022-12-25T08:26:50.412Z,168.00
2022-12-25T08:27:50.597Z,170.00
2022-12-25T08:28:50.982Z,178.00
2022-12-25T08:29:51.319Z,176.00
2022-12-25T08:30:51.443Z,169.00
2022-12-25T08:31:51.635Z,164.00
2022-12-25T08:32:51.876Z,164.00
2022-12-25T08:33:52.169Z,162.00
2022-12-25T08:34:52.386Z,162.00
2022-12-25T08:35:52.668Z,160.00
2022-12-25T08:36:52.964Z,167.00
2022-12-25T08:37:53.185Z,184.00
2022-12-25T08:38:58.532Z,202.00
2022-12-25T08:39:54.809Z,222.00
2022-12-25T08:40:54.122Z,220.00
2022-12-25T08:41:54.455Z,211.00
2022-12-25T08:42:54.592Z,242.00
2022-12-25T08:43:54.810Z,335.00
2022-12-25T08:44:55.233Z,378.00
2022-12-25T08:45:55.511Z,394.00
2022-12-25T08:46:56.164Z,384.00
2022-12-25T08:47:55.939Z,395.00
2022-12-25T08:48:56.380Z,400.00
2022-12-25T08:49:56.624Z,408.00
2022-12-25T08:50:56.873Z,439.00
2022-12-25T08:51:57.071Z,450.00
2022-12-25T08:52:57.361Z,470.00
2022-12-25T08:53:57.596Z,467.00
2022-12-25T08:54:57.937Z,435.00
2022-12-25T08:55:58.340Z,419.00
2022-12-25T08:57:02.668Z,394.00
2022-12-25T08:57:58.856Z,392.00
2022-12-25T08:58:59.221Z,371.00
2022-12-25T08:59:59.456Z,375.00
2022-12-25T09:00:59.706Z,378.00
2022-12-25T09:01:59.995Z,368.00
2022-12-25T09:03:00.456Z,353.00
2022-12-25T09:04:00.539Z,386.00
2022-12-25T09:05:00.796Z,399.00
2022-12-25T09:06:01.063Z,383.00
2022-12-25T09:07:01.328Z,376.00
2022-12-25T09:08:01.666Z,369.00
2022-12-25T09:09:01.901Z,377.00
2022-12-25T09:10:02.111Z,442.00
2022-12-25T09:11:02.530Z,454.00
2022-12-25T09:12:02.738Z,472.00
2022-12-25T09:13:03.055Z,450.00
2022-12-25T09:14:03.306Z,411.00
2022-12-25T09:15:03.551Z,388.00
2022-12-25T09:16:03.849Z,375.00
2022-12-25T09:17:04.099Z,380.00
2022-12-25T09:18:04.443Z,399.00
2022-12-25T09:19:04.648Z,434.00
2022-12-25T09:20:04.912Z,493.00
2022-12-25T09:21:05.255Z,543.00
2022-12-25T09:22:05.510Z,576.00
2022-12-25T09:23:11.655Z,615.00
2022-12-25T09:24:06.974Z,626.00
2022-12-25T09:25:06.241Z,637.00
2022-12-25T09:26:06.545Z,612.00
2022-12-25T09:27:06.850Z,577.00
2022-12-25T09:28:07.095Z,568.00
2022-12-25T09:29:07.385Z,554.00
2022-12-25T09:30:07.633Z,555.00
2022-12-25T09:31:07.952Z,542.00
2022-12-25T09:32:08.148Z,552.00
2022-12-25T09:33:08.421Z,569.00
2022-12-25T09:34:11.423Z,575.00
2022-12-25T09:35:10.061Z,543.00
2022-12-25T09:36:09.202Z,548.00
2022-12-25T09:37:09.584Z,602.00
2022-12-25T09:38:09.826Z,751.00
2022-12-25T09:39:10.211Z,722.00
2022-12-25T09:40:10.425Z,696.00
2022-12-25T09:41:10.723Z,1554.00
2022-12-25T09:42:10.988Z,1690.00
2022-12-25T09:43:11.250Z,1796.00
2022-12-25T09:44:11.658Z,2538.00
2022-12-25T09:45:11.777Z,1632.00
2022-12-25T09:46:12.110Z,1253.00
2022-12-25T09:47:12.391Z,1071.00
2022-12-25T09:48:12.668Z,1207.00
2022-12-25T09:49:12.939Z,802.00
2022-12-25T09:50:13.190Z,1336.00
2022-12-25T09:51:13.448Z,1617.00
2022-12-25T09:52:13.703Z,1235.00
2022-12-25T09:53:13.978Z,1256.00
2022-12-25T09:54:14.238Z,1037.00
2022-12-25T09:55:19.629Z,1356.00
2022-12-25T09:56:15.735Z,1693.00
2022-12-25T09:57:15.046Z,1946.00
2022-12-25T09:58:15.295Z,1620.00
2022-12-25T09:59:15.577Z,1324.00
2022-12-25T10:00:15.834Z,1503.00
2022-12-25T10:01:16.238Z,1840.00
2022-12-25T10:02:16.607Z,1816.00
2022-12-25T10:03:16.657Z,1836.00
2022-12-25T10:04:16.918Z,1988.00
2022-12-25T10:05:17.228Z,1803.00
2022-12-25T10:06:17.474Z,1573.00
2022-12-25T10:07:17.715Z,1347.00
2022-12-25T10:08:17.967Z,1604.00
2022-12-25T10:09:18.223Z,1800.00
2022-12-25T10:10:18.487Z,1862.00
2022-12-25T10:11:18.714Z,1930.00
2022-12-25T10:12:18.975Z,1838.00
2022-12-25T10:13:19.309Z,1976.00
2022-12-25T10:14:19.511Z,1868.00
2022-12-25T10:15:19.800Z,1875.00
2022-12-25T10:16:20.010Z,2027.00
2022-12-25T10:17:20.238Z,1925.00
2022-12-25T10:18:20.542Z,1605.00
2022-12-25T10:19:20.817Z,1796.00
2022-12-25T10:20:21.076Z,2383.00
2022-12-25T10:21:21.360Z,2345.00
2022-12-25T10:22:21.527Z,1479.00
2022-12-25T10:23:21.769Z,1284.00
2022-12-25T10:24:22.053Z,1182.00
2022-12-25T10:25:22.458Z,939.00
2022-12-25T10:26:22.672Z,948.00
2022-12-25T10:27:22.943Z,1001.00
2022-12-25T10:28:23.138Z,1128.00
2022-12-25T10:29:23.390Z,1133.00
2022-12-25T10:30:23.676Z,1371.00
2022-12-25T10:31:23.965Z,1256.00
2022-12-25T10:32:24.249Z,1048.00
2022-12-25T10:33:24.487Z,1240.00
2022-12-25T10:34:24.843Z,1388.00
2022-12-25T10:35:25.036Z,1274.00
2022-12-25T10:36:25.293Z,2072.00
2022-12-25T10:37:25.538Z,1821.00
2022-12-25T10:38:25.785Z,1703.00
2022-12-25T10:39:26.033Z,1857.00
2022-12-25T10:40:26.244Z,1538.00
2022-12-25T10:41:26.623Z,1148.00
2022-12-25T10:42:26.844Z,1090.00
2022-12-25T10:43:27.211Z,1003.00
2022-12-25T10:44:27.459Z,926.00
2022-12-25T10:45:27.752Z,939.00
2022-12-25T10:46:28.334Z,852.00
2022-12-25T10:47:28.273Z,849.00
2022-12-25T10:48:28.528Z,914.00
2022-12-25T10:49:28.817Z,874.00
2022-12-25T10:50:29.045Z,832.00
2022-12-25T10:51:29.300Z,810.00
2022-12-25T10:52:29.544Z,844.00
2022-12-25T10:53:29.797Z,981.00
2022-12-25T10:54:30.039Z,943.00
2022-12-25T10:55:30.417Z,903.00
2022-12-25T10:56:30.627Z,1018.00
2022-12-25T10:57:31.096Z,1046.00
2022-12-25T10:58:31.174Z,1094.00
2022-12-25T10:59:31.518Z,1058.00
2022-12-25T11:00:31.747Z,1042.00
2022-12-25T11:01:32.093Z,1059.00
2022-12-25T11:02:32.476Z,1060.00
2022-12-25T11:03:32.714Z,1079.00
2022-12-25T11:04:32.914Z,1093.00
2022-12-25T11:05:33.143Z,1051.00
2022-12-25T11:06:33.457Z,1062.00
2022-12-25T11:07:33.650Z,1070.00
2022-12-25T11:08:33.885Z,1129.00
2022-12-25T11:09:34.181Z,1227.00
2022-12-25T11:10:34.433Z,1294.00
2022-12-25T11:11:34.735Z,1335.00
2022-12-25T11:12:34.924Z,1379.00
2022-12-25T11:13:35.166Z,1409.00
2022-12-25T11:14:35.403Z,1435.00
2022-12-25T11:15:35.687Z,1424.00
2022-12-25T11:16:36.174Z,1411.00
2022-12-25T11:17:36.269Z,1394.00
2022-12-25T11:18:36.526Z,1367.00
2022-12-25T11:19:36.829Z,1349.00
2022-12-25T11:20:38.405Z,1252.00
2022-12-25T11:21:37.407Z,1178.00
2022-12-25T11:22:37.553Z,1035.00
2022-12-25T11:23:37.943Z,846.00
2022-12-25T11:24:38.217Z,737.00
2022-12-25T11:25:38.429Z,695.00
2022-12-25T11:26:38.902Z,715.00
2022-12-25T11:27:38.945Z,726.00
2022-12-25T11:28:39.282Z,771.00
2022-12-25T11:29:39.538Z,743.00
2022-12-25T11:30:39.742Z,728.00
2022-12-25T11:31:40.103Z,720.00
2022-12-25T11:32:40.242Z,797.00
2022-12-25T11:33:40.487Z,841.00
2022-12-25T11:34:40.731Z,936.00
2022-12-25T11:35:41.000Z,990.00
2022-12-25T11:36:41.295Z,970.00
2022-12-25T11:37:41.539Z,1041.00
2022-12-25T11:38:41.855Z,1133.00
2022-12-25T11:39:42.168Z,1100.00
2022-12-25T11:40:42.354Z,1108.00
2022-12-25T11:41:42.588Z,1022.00
2022-12-25T11:42:42.849Z,998.00
2022-12-25T11:43:43.128Z,955.00
2022-12-25T11:44:43.424Z,900.00
2022-12-25T11:45:43.665Z,857.00
2022-12-25T11:46:44.028Z,846.00
2022-12-25T11:47:44.330Z,934.00
2022-12-25T11:48:44.508Z,1021.00
2022-12-25T11:49:49.480Z,1023.00
2022-12-25T11:50:45.986Z,1140.00
2022-12-25T11:51:45.306Z,1103.00
2022-12-25T11:52:45.525Z,1031.00
2022-12-25T11:53:45.792Z,1170.00
2022-12-25T11:54:46.032Z,996.00
2022-12-25T11:55:46.314Z,935.00
2022-12-25T11:56:46.518Z,1165.00
2022-12-25T11:57:46.768Z,1109.00
2022-12-25T11:58:47.035Z,938.00
2022-12-25T11:59:47.320Z,1683.00
2022-12-25T12:00:47.591Z,3577.00
2022-12-25T12:01:47.969Z,1926.00
2022-12-25T12:02:48.318Z,1714.00
2022-12-25T12:03:48.467Z,1985.00
2022-12-25T12:04:48.727Z,2022.00
2022-12-25T12:05:49.015Z,2057.00
2022-12-25T12:06:50.244Z,2370.00
2022-12-25T12:07:49.546Z,3994.00
2022-12-25T12:08:49.755Z,2357.00
2022-12-25T12:09:50.055Z,2054.00
2022-12-25T12:10:50.362Z,1461.00
2022-12-25T12:11:50.682Z,1587.00
2022-12-25T12:12:50.965Z,1921.00
2022-12-25T12:13:51.171Z,1938.00
2022-12-25T12:14:51.463Z,2138.00
2022-12-25T12:15:51.781Z,2142.00
2022-12-25T12:16:51.991Z,2479.00
2022-12-25T12:17:52.227Z,2259.00
2022-12-25T12:18:52.488Z,2092.00
2022-12-25T12:19:52.826Z,2016.00
2022-12-25T12:20:53.055Z,2305.00
2022-12-25T12:21:53.351Z,2252.00
2022-12-25T12:22:54.432Z,2212.00
2022-12-25T12:23:53.904Z,2183.00
2022-12-25T12:24:54.173Z,2156.00
2022-12-25T12:25:54.492Z,2135.00
2022-12-25T12:26:54.738Z,2262.00
2022-12-25T12:27:59.798Z,3488.00
2022-12-25T12:28:56.251Z,2832.00
2022-12-25T12:29:55.660Z,1955.00
2022-12-25T12:30:55.808Z,4820.00
2022-12-25T12:31:56.194Z,1871.00
2022-12-25T12:32:56.293Z,2360.00
2022-12-25T12:33:56.578Z,20225.00
2022-12-25T12:34:56.829Z,14862.00
2022-12-25T12:35:57.116Z,3554.00
2022-12-25T12:36:57.330Z,6112.00
2022-12-25T12:37:57.638Z,10219.00
2022-12-25T12:38:57.857Z,8020.00
2022-12-25T12:39:58.318Z,3986.00
2022-12-25T12:40:58.556Z,2655.00
2022-12-25T12:41:58.842Z,1471.00
2022-12-25T12:42:59.115Z,4396.00
2022-12-25T12:43:59.341Z,80919.00
2022-12-25T12:44:59.621Z,81158.00
2022-12-25T12:45:59.937Z,75364.00
2022-12-25T12:47:00.237Z,77900.00
2022-12-25T12:48:00.486Z,14411.00
2022-12-25T12:49:00.754Z,78583.00
2022-12-25T12:50:01.058Z,82591.00
2022-12-25T12:51:01.332Z,70039.00
2022-12-25T12:52:01.616Z,14264.00
2022-12-25T12:53:01.885Z,9548.00
2022-12-25T12:54:02.160Z,8303.00
2022-12-25T12:55:02.647Z,5125.00